Time;durP1;ratioP1;P1;durP2;ratioP2;P2;SDS_P1;SDS_P2;PMS_P1;PMS_P2;Temp;Humidity;BMP_temperature;BMP_pressure;BME280_temperature;BME280_humidity;BME280_pressure;Samples;Min_cycle;Max_cycle;Signal;HPM_P1;HPM_P2
2021/12/18 00:00:48;;;;;;;21.63;11.35;;;5.90;71.00;;;;;;5122441;27;20045;-72
2021/12/18 00:03:14;;;;;;;20.75;12.68;;;5.90;71.20;;;;;;5105088;27;20031;-72
2021/12/18 00:05:40;;;;;;;22.08;13.07;;;5.80;71.30;;;;;;5142548;27;20034;-70
2021/12/18 00:08:06;;;;;;;18.98;12.48;;;5.80;71.50;;;;;;5135203;27;20121;-72
2021/12/18 00:10:32;;;;;;;19.48;12.88;;;5.80;71.70;;;;;;5134030;27;20109;-71
2021/12/18 00:12:57;;;;;;;21.13;13.18;;;5.80;71.70;;;;;;5135561;27;20039;-73
2021/12/18 00:15:24;;;;;;;18.90;12.40;;;5.70;71.60;;;;;;5130649;27;20495;-71
2021/12/18 00:17:50;;;;;;;18.60;11.77;;;5.70;71.70;;;;;;5124741;27;20050;-71
2021/12/18 00:20:17;;;;;;;19.95;12.05;;;5.70;71.80;;;;;;5124435;27;20384;-71
2021/12/18 00:22:43;;;;;;;17.52;11.88;;;5.70;71.80;;;;;;5152006;27;20211;-72
2021/12/18 00:25:09;;;;;;;16.83;11.15;;;5.70;71.70;;;;;;5115377;27;20039;-72
2021/12/18 00:27:35;;;;;;;16.95;11.20;;;5.70;71.70;;;;;;5107000;28;20070;-72
2021/12/18 00:30:02;;;;;;;14.88;9.82;;;5.70;71.80;;;;;;5111525;27;20078;-72
2021/12/18 00:32:28;;;;;;;17.50;10.32;;;5.60;71.80;;;;;;5133817;27;20340;-72
2021/12/18 00:34:53;;;;;;;17.00;10.73;;;5.60;71.70;;;;;;5129854;27;20056;-71
2021/12/18 00:37:19;;;;;;;17.45;11.27;;;5.60;71.80;;;;;;5135822;27;20487;-72
2021/12/18 00:39:55;;;;;;;19.23;11.68;;;5.60;71.70;;;;;;5114097;27;20034;-72
2021/12/18 00:44:49;;;;;;;16.83;11.18;;;5.50;71.90;;;;;;5136250;27;20080;-72
2021/12/18 00:47:15;;;;;;;17.38;11.10;;;5.50;71.90;;;;;;5125162;27;20019;-72
2021/12/18 00:49:41;;;;;;;17.05;11.20;;;5.50;71.90;;;;;;5134150;27;20033;-71
2021/12/18 00:52:07;;;;;;;17.10;11.25;;;5.50;72.00;;;;;;5120022;27;20027;-72
2021/12/18 00:54:34;;;;;;;16.88;10.55;;;5.50;72.00;;;;;;5132780;27;20490;-71
2021/12/18 00:57:00;;;;;;;17.23;10.70;;;5.50;71.90;;;;;;5130995;27;20548;-72
2021/12/18 00:59:26;;;;;;;17.95;10.25;;;5.40;71.90;;;;;;5121469;27;20024;-72
2021/12/18 01:01:52;;;;;;;17.92;11.00;;;5.40;72.00;;;;;;5101296;27;20478;-72
2021/12/18 01:04:18;;;;;;;17.55;11.10;;;5.40;72.00;;;;;;5113032;27;20491;-71
2021/12/18 01:06:44;;;;;;;17.77;10.80;;;5.40;71.80;;;;;;5115695;27;20020;-71
2021/12/18 01:09:10;;;;;;;19.48;11.75;;;5.40;71.90;;;;;;5110308;27;20031;-72
2021/12/18 01:11:43;;;;;;;18.67;11.80;;;5.30;71.90;;;;;;5133980;27;20356;-72
2021/12/18 01:24:31;;;;;;;22.42;13.30;;;5.30;72.40;;;;;;5120958;27;20042;-72
2021/12/18 01:26:57;;;;;;;19.70;11.93;;;5.20;72.40;;;;;;5105243;27;20038;-72
2021/12/18 01:29:22;;;;;;;20.08;11.57;;;5.20;72.50;;;;;;5131635;27;20043;-72
2021/12/18 01:31:48;;;;;;;20.95;12.32;;;5.20;72.60;;;;;;5120600;27;20047;-72
2021/12/18 01:34:14;;;;;;;17.45;10.70;;;5.20;72.60;;;;;;5125267;27;20077;-72
2021/12/18 01:36:40;;;;;;;18.40;11.43;;;5.20;73.30;;;;;;5132443;27;20035;-72
2021/12/18 01:39:05;;;;;;;22.85;11.13;;;5.10;72.50;;;;;;5111824;28;20035;-72
2021/12/18 01:41:40;;;;;;;18.35;11.27;;;5.10;72.60;;;;;;5124927;27;20114;-72
2021/12/18 01:51:11;;;;;;;20.80;12.10;;;5.10;72.80;;;;;;5129711;27;20075;-72
2021/12/18 01:52:32;;;;;;;19.45;11.63;;;5.10;73.00;;;;;;5124078;27;20037;-73
2021/12/18 01:54:58;;;;;;;19.75;11.65;;;5.10;72.90;;;;;;5116252;27;20027;-72
2021/12/18 01:57:24;;;;;;;18.88;10.82;;;5.00;72.90;;;;;;5125823;27;20044;-72
2021/12/18 01:59:51;;;;;;;20.00;11.23;;;5.00;72.90;;;;;;5126503;27;20043;-72
2021/12/18 02:02:16;;;;;;;20.30;11.05;;;5.00;73.00;;;;;;5130745;27;20015;-72
2021/12/18 02:04:42;;;;;;;18.73;10.88;;;5.00;73.00;;;;;;5129611;27;20183;-72
2021/12/18 02:07:09;;;;;;;17.10;10.35;;;5.00;73.20;;;;;;5121329;27;20070;-72
2021/12/18 02:09:56;;;;;;;18.55;11.35;;;4.90;73.30;;;;;;5121421;27;20023;-72
2021/12/18 02:12:28;;;;;;;17.13;10.45;;;5.00;73.40;;;;;;5143222;27;20019;-72
2021/12/18 02:23:00;;;;;;;17.27;10.23;;;4.90;73.30;;;;;;5126634;27;20041;-72
2021/12/18 02:25:26;;;;;;;21.33;11.60;;;4.90;73.20;;;;;;5133962;27;20031;-71
2021/12/18 02:27:55;;;;;;;16.95;10.55;;;4.90;73.20;;;;;;5123505;27;20102;-71
2021/12/18 02:30:21;;;;;;;19.10;11.63;;;4.90;73.40;;;;;;5113077;28;20019;-71
2021/12/18 02:32:48;;;;;;;20.70;12.50;;;4.90;73.50;;;;;;5129339;28;20475;-71
2021/12/18 02:35:38;;;;;;;21.13;10.65;;;4.90;73.50;;;;;;5123802;27;20043;-72
2021/12/18 02:38:15;;;;;;;20.70;11.98;;;4.90;73.80;;;;;;5131821;28;20023;-73
2021/12/18 02:40:53;;;;;;;21.85;12.20;;;4.90;73.70;;;;;;5095188;28;20019;-72
2021/12/18 02:43:22;;;;;;;20.95;13.10;;;4.90;73.70;;;;;;5116966;27;20142;-71
2021/12/18 02:45:48;;;;;;;21.80;11.80;;;4.90;73.70;;;;;;5119002;28;20394;-72
2021/12/18 02:48:14;;;;;;;20.80;12.50;;;5.00;73.90;;;;;;5130183;27;20016;-72
2021/12/18 02:50:40;;;;;;;20.65;13.10;;;5.00;74.00;;;;;;5115029;28;20130;-72
2021/12/18 02:53:07;;;;;;;26.13;13.57;;;5.00;74.00;;;;;;5112603;27;20443;-72
2021/12/18 02:55:32;;;;;;;21.40;12.98;;;5.00;74.10;;;;;;5114566;28;20132;-72
2021/12/18 02:57:58;;;;;;;22.23;13.10;;;5.00;74.10;;;;;;5133102;28;20487;-72
2021/12/18 03:00:26;;;;;;;24.00;13.25;;;5.00;74.00;;;;;;5131350;27;20031;-72
2021/12/18 03:02:52;;;;;;;24.35;13.52;;;5.10;74.10;;;;;;5133191;27;20090;-72
2021/12/18 03:05:25;;;;;;;25.45;14.48;;;5.10;74.10;;;;;;5132085;27;20114;-71
2021/12/18 03:07:57;;;;;;;30.42;14.38;;;5.10;74.10;;;;;;5137452;27;20479;-72
2021/12/18 03:24:30;;;;;;;21.38;11.63;;;5.30;74.10;;;;;;5096660;27;20051;-72
2021/12/18 03:26:55;;;;;;;20.23;11.18;;;5.30;73.90;;;;;;5118660;27;20023;-72
2021/12/18 03:29:21;;;;;;;18.83;11.25;;;5.30;73.80;;;;;;5117377;27;20132;-72
2021/12/18 03:31:47;;;;;;;22.63;12.32;;;5.20;73.80;;;;;;5108766;27;20114;-73
2021/12/18 03:34:12;;;;;;;22.33;12.05;;;5.20;73.90;;;;;;5115587;27;20019;-73
2021/12/18 03:36:38;;;;;;;21.58;11.98;;;5.20;73.90;;;;;;5136639;27;20185;-73
2021/12/18 03:39:04;;;;;;;26.80;13.00;;;5.20;74.00;;;;;;5135380;27;20034;-73
2021/12/18 03:41:30;;;;;;;23.65;13.02;;;5.20;74.10;;;;;;5136474;27;20023;-72
2021/12/18 03:43:55;;;;;;;24.40;13.30;;;5.20;74.20;;;;;;5135148;27;20052;-72
2021/12/18 03:46:21;;;;;;;25.33;13.10;;;5.20;74.20;;;;;;5116650;27;20023;-72
2021/12/18 03:48:47;;;;;;;34.60;16.90;;;5.20;74.30;;;;;;5113603;27;20440;-72
2021/12/18 03:51:12;;;;;;;44.08;15.38;;;5.20;74.30;;;;;;5111932;27;20027;-72
2021/12/18 03:53:38;;;;;;;37.65;15.77;;;5.20;74.90;;;;;;5132840;27;20016;-72
2021/12/18 03:56:05;;;;;;;31.52;14.88;;;5.20;74.00;;;;;;5123842;27;20035;-71
2021/12/18 03:58:30;;;;;;;30.48;14.77;;;5.20;74.10;;;;;;5136323;27;20015;-72
2021/12/18 04:00:57;;;;;;;26.23;14.60;;;5.10;74.20;;;;;;5117116;27;20030;-72
2021/12/18 04:03:22;;;;;;;27.42;14.68;;;5.40;74.50;;;;;;5135574;27;20019;-72
2021/12/18 04:05:49;;;;;;;30.95;15.25;;;5.10;74.40;;;;;;5135080;27;20039;-73
2021/12/18 04:08:15;;;;;;;27.17;14.95;;;5.10;74.30;;;;;;5117175;27;20382;-73
2021/12/18 04:10:41;;;;;;;36.50;20.85;;;5.10;74.30;;;;;;5133071;27;20042;-72
2021/12/18 04:13:08;;;;;;;37.47;19.00;;;5.10;74.30;;;;;;5115691;28;20027;-73
2021/12/18 04:15:35;;;;;;;22.35;13.48;;;5.00;74.30;;;;;;5096478;27;20468;-73
2021/12/18 04:18:01;;;;;;;52.70;21.45;;;5.00;74.20;;;;;;5097645;28;20031;-73
2021/12/18 04:20:27;;;;;;;51.50;22.52;;;5.00;74.10;;;;;;5130193;27;20390;-72
2021/12/18 04:22:52;;;;;;;640.35;215.85;;;5.00;74.20;;;;;;5135589;27;20035;-73
2021/12/18 04:25:18;;;;;;;204.75;72.97;;;5.00;74.20;;;;;;5135340;27;20088;-72
2021/12/18 04:27:44;;;;;;;79.22;34.13;;;4.90;74.30;;;;;;5117359;27;20100;-72
2021/12/18 04:30:10;;;;;;;52.60;23.63;;;4.90;74.50;;;;;;5135695;27;20078;-73
2021/12/18 04:32:36;;;;;;;35.13;17.20;;;4.90;74.60;;;;;;5110706;27;20027;-72
2021/12/18 04:35:01;;;;;;;28.23;14.32;;;4.90;74.50;;;;;;5117991;27;20382;-72
2021/12/18 04:37:27;;;;;;;27.40;14.57;;;4.90;74.50;;;;;;5134064;27;20526;-72
2021/12/18 04:39:53;;;;;;;24.38;13.25;;;4.90;74.40;;;;;;5133472;27;20023;-72
2021/12/18 04:42:20;;;;;;;24.85;13.27;;;4.90;74.30;;;;;;5135780;27;20075;-73
2021/12/18 04:44:46;;;;;;;23.85;12.23;;;4.90;74.30;;;;;;5106621;28;20032;-72
2021/12/18 04:47:11;;;;;;;46.58;24.75;;;4.90;74.30;;;;;;5115167;28;20024;-73
2021/12/18 04:49:37;;;;;;;24.75;15.30;;;4.80;74.30;;;;;;5129010;27;20055;-72
2021/12/18 04:52:04;;;;;;;26.85;17.50;;;4.80;74.30;;;;;;5116520;27;20047;-72
2021/12/18 04:54:29;;;;;;;21.88;13.48;;;4.80;74.20;;;;;;5109987;28;20217;-73
2021/12/18 04:56:55;;;;;;;19.13;11.25;;;4.80;74.00;;;;;;5114795;28;20028;-72
2021/12/18 04:59:21;;;;;;;19.95;10.35;;;4.80;74.10;;;;;;5114222;27;20035;-72
2021/12/18 05:01:47;;;;;;;20.92;11.60;;;4.80;74.20;;;;;;5104301;27;20058;-72
2021/12/18 05:04:14;;;;;;;23.92;12.35;;;4.70;74.20;;;;;;5114448;27;20119;-72
2021/12/18 05:06:46;;;;;;;24.70;13.25;;;4.80;74.40;;;;;;5115545;27;20499;-73
2021/12/18 05:09:13;;;;;;;22.23;12.23;;;4.70;74.40;;;;;;5135181;27;20113;-73
2021/12/18 05:11:41;;;;;;;24.98;12.48;;;4.80;75.10;;;;;;5118159;27;20030;-72
2021/12/18 05:14:07;;;;;;;21.73;12.10;;;4.80;74.40;;;;;;5114014;27;20026;-72
2021/12/18 05:16:33;;;;;;;20.23;11.65;;;4.70;74.20;;;;;;5116665;27;20030;-72
2021/12/18 05:18:58;;;;;;;22.73;11.82;;;4.70;74.10;;;;;;5120200;27;20020;-72
2021/12/18 05:21:24;;;;;;;22.25;12.48;;;4.70;74.10;;;;;;5121437;27;20102;-72
2021/12/18 05:23:50;;;;;;;22.10;12.63;;;4.70;74.10;;;;;;5134717;27;20023;-72
2021/12/18 05:26:16;;;;;;;23.55;13.10;;;4.70;74.10;;;;;;5132514;27;20027;-72
2021/12/18 05:28:42;;;;;;;22.83;11.88;;;5.00;74.30;;;;;;5116728;27;20039;-72
2021/12/18 05:31:09;;;;;;;22.02;13.05;;;4.70;74.10;;;;;;5115391;27;20039;-72
2021/12/18 05:33:36;;;;;;;22.85;12.30;;;4.60;74.10;;;;;;5131734;27;20079;-72
2021/12/18 05:36:03;;;;;;;22.30;11.88;;;4.60;74.20;;;;;;5134128;27;20026;-72
2021/12/18 05:38:29;;;;;;;22.23;12.00;;;4.60;74.30;;;;;;5100086;27;21408;-72
2021/12/18 05:40:55;;;;;;;20.95;11.88;;;4.60;74.50;;;;;;5134439;27;20035;-72
2021/12/18 05:43:20;;;;;;;22.40;11.73;;;4.80;74.50;;;;;;5130989;27;20019;-73
2021/12/18 05:45:46;;;;;;;21.73;12.15;;;4.60;74.40;;;;;;5126910;27;20054;-72
2021/12/18 05:48:12;;;;;;;22.65;12.13;;;4.50;74.30;;;;;;5129149;27;20046;-72
2021/12/18 05:50:38;;;;;;;25.55;12.70;;;4.50;74.40;;;;;;5133709;27;20419;-72
2021/12/18 05:53:04;;;;;;;20.92;12.02;;;4.50;74.50;;;;;;5113828;27;20058;-73
2021/12/18 05:55:30;;;;;;;20.33;11.25;;;4.50;74.50;;;;;;5131989;27;20099;-72
2021/12/18 05:57:56;;;;;;;23.48;11.77;;;4.50;74.60;;;;;;5113820;28;20028;-72
2021/12/18 06:00:22;;;;;;;21.45;10.57;;;4.50;74.60;;;;;;5133187;27;20030;-72
2021/12/18 06:02:48;;;;;;;21.30;12.05;;;4.50;74.70;;;;;;5129241;27;20027;-72
2021/12/18 06:05:14;;;;;;;22.08;12.18;;;4.50;74.70;;;;;;5114535;27;20062;-72
2021/12/18 06:07:58;;;;;;;24.60;12.80;;;4.80;74.80;;;;;;5114703;27;20031;-72
2021/12/18 06:10:32;;;;;;;24.38;12.38;;;4.60;74.80;;;;;;5134092;27;20022;-72
2021/12/18 06:12:59;;;;;;;24.80;12.77;;;4.60;75.40;;;;;;5133676;27;20423;-73
2021/12/18 06:15:25;;;;;;;23.40;11.40;;;4.60;74.50;;;;;;5113257;27;20071;-72
2021/12/18 06:17:53;;;;;;;21.15;11.88;;;4.60;74.40;;;;;;5132629;27;20425;-72
2021/12/18 06:20:18;;;;;;;19.20;11.45;;;4.70;74.40;;;;;;5131886;27;20016;-72
2021/12/18 06:22:44;;;;;;;22.88;11.82;;;4.70;74.40;;;;;;5111487;27;20035;-72
2021/12/18 06:25:10;;;;;;;27.13;12.65;;;4.70;74.30;;;;;;5132592;27;20043;-72
2021/12/18 06:27:35;;;;;;;22.88;12.52;;;5.00;74.50;;;;;;5132122;27;20023;-72
2021/12/18 06:30:02;;;;;;;24.08;13.13;;;4.60;74.30;;;;;;5117684;27;20504;-73
2021/12/18 06:32:28;;;;;;;22.70;13.32;;;4.60;74.30;;;;;;5109161;27;20023;-73
2021/12/18 06:34:53;;;;;;;21.30;12.82;;;4.70;74.40;;;;;;5133333;28;20375;-72
2021/12/18 06:37:19;;;;;;;23.75;12.23;;;4.70;74.40;;;;;;5131429;27;20131;-73
2021/12/18 06:39:45;;;;;;;21.70;12.07;;;4.60;74.40;;;;;;5133073;28;20360;-72
2021/12/18 06:42:10;;;;;;;20.60;11.63;;;4.60;74.40;;;;;;5114763;28;20027;-72
2021/12/18 06:44:36;;;;;;;19.63;11.43;;;4.60;74.30;;;;;;5133273;28;20421;-72
2021/12/18 06:47:02;;;;;;;22.77;12.23;;;4.60;74.30;;;;;;5129502;28;20023;-72
2021/12/18 06:49:27;;;;;;;23.30;12.35;;;4.60;74.30;;;;;;5133373;28;20027;-72
2021/12/18 06:51:54;;;;;;;23.38;12.13;;;4.60;74.40;;;;;;5131581;27;20042;-72
2021/12/18 06:54:19;;;;;;;23.58;12.57;;;4.60;74.50;;;;;;5132897;28;20088;-72
2021/12/18 06:56:45;;;;;;;24.15;12.95;;;4.60;74.50;;;;;;5132330;27;20410;-72
2021/12/18 06:59:10;;;;;;;24.65;11.88;;;4.60;74.60;;;;;;5133311;28;20062;-72
2021/12/18 07:01:36;;;;;;;21.70;12.55;;;4.60;74.50;;;;;;5104545;28;20132;-72
2021/12/18 07:04:02;;;;;;;22.92;11.27;;;4.60;74.60;;;;;;5124673;28;20027;-72
2021/12/18 07:06:29;;;;;;;23.25;12.88;;;4.60;74.60;;;;;;5132142;27;20118;-72
2021/12/18 07:08:54;;;;;;;26.92;13.50;;;4.60;74.60;;;;;;5131951;28;20015;-72
2021/12/18 07:11:20;;;;;;;22.35;12.82;;;4.60;74.70;;;;;;5132393;28;20034;-72
2021/12/18 07:13:46;;;;;;;23.55;13.20;;;4.60;74.80;;;;;;5114530;28;20027;-72
2021/12/18 07:16:12;;;;;;;23.38;12.02;;;4.70;74.90;;;;;;5127269;27;20020;-72
2021/12/18 07:18:37;;;;;;;22.00;13.20;;;4.70;74.80;;;;;;5094525;28;20047;-73
2021/12/18 07:21:03;;;;;;;19.50;11.48;;;4.70;74.70;;;;;;5127148;27;20023;-73
2021/12/18 07:23:29;;;;;;;25.10;14.30;;;4.70;74.60;;;;;;5132137;28;20047;-73
2021/12/18 07:25:55;;;;;;;22.38;12.27;;;4.90;74.60;;;;;;5131991;28;20046;-73
2021/12/18 07:28:20;;;;;;;23.42;12.05;;;4.70;74.50;;;;;;5132429;28;20035;-72
2021/12/18 07:30:46;;;;;;;24.48;13.80;;;4.70;74.50;;;;;;5131047;27;20072;-72
2021/12/18 07:33:12;;;;;;;27.13;13.05;;;4.80;74.40;;;;;;5133144;28;20020;-72
2021/12/18 07:35:39;;;;;;;20.08;11.52;;;4.80;74.40;;;;;;5126017;28;20034;-72
2021/12/18 07:38:05;;;;;;;21.25;12.15;;;4.70;74.40;;;;;;5122911;28;20062;-73
2021/12/18 07:40:31;;;;;;;22.98;12.13;;;4.80;74.50;;;;;;5131835;27;20062;-73
2021/12/18 07:42:56;;;;;;;24.73;12.57;;;4.80;74.60;;;;;;5114468;28;20486;-73
2021/12/18 07:45:23;;;;;;;21.58;12.20;;;4.80;74.50;;;;;;5130759;28;20043;-72
2021/12/18 07:47:48;;;;;;;23.00;13.48;;;4.80;74.50;;;;;;5131354;28;20032;-71
2021/12/18 07:50:18;;;;;;;22.05;12.50;;;4.80;74.40;;;;;;5126808;27;20028;-71
2021/12/18 07:52:45;;;;;;;33.70;17.83;;;4.80;74.40;;;;;;5113174;27;20019;-71
2021/12/18 07:55:11;;;;;;;38.00;24.30;;;4.90;74.40;;;;;;5121662;27;20027;-72
2021/12/18 07:57:37;;;;;;;24.55;14.20;;;4.80;74.30;;;;;;5118593;27;20031;-72
2021/12/18 08:00:09;;;;;;;24.83;13.25;;;4.90;74.40;;;;;;5135220;27;20055;-72
2021/12/18 08:02:34;;;;;;;29.52;15.63;;;4.90;74.40;;;;;;5119090;27;20031;-74
2021/12/18 08:05:00;;;;;;;23.33;13.50;;;4.90;74.40;;;;;;5116324;27;20083;-74
2021/12/18 08:07:26;;;;;;;23.75;14.25;;;4.90;74.30;;;;;;5106157;27;20016;-74
2021/12/18 08:09:52;;;;;;;21.88;13.15;;;5.10;74.50;;;;;;5113016;27;20030;-74
2021/12/18 08:12:17;;;;;;;27.88;13.30;;;4.90;74.50;;;;;;5097792;28;20035;-76
2021/12/18 08:14:43;;;;;;;24.02;13.63;;;5.00;74.50;;;;;;5116984;27;20019;-74
2021/12/18 08:17:09;;;;;;;25.33;13.40;;;5.00;74.30;;;;;;5117400;27;20032;-74
2021/12/18 08:19:35;;;;;;;23.20;11.68;;;5.00;74.20;;;;;;5113320;27;20494;-74
2021/12/18 08:22:00;;;;;;;24.75;13.55;;;5.00;74.20;;;;;;5135585;27;20481;-74
2021/12/18 08:24:26;;;;;;;21.70;13.07;;;5.00;74.20;;;;;;5128677;27;20031;-74
2021/12/18 08:26:53;;;;;;;26.30;14.15;;;5.00;74.20;;;;;;5105306;27;20027;-74
2021/12/18 08:29:18;;;;;;;23.35;13.45;;;5.00;74.10;;;;;;5131670;27;20088;-74
2021/12/18 08:31:45;;;;;;;24.42;12.93;;;5.00;74.20;;;;;;5131103;27;20036;-75
2021/12/18 08:34:11;;;;;;;25.25;14.32;;;5.10;74.30;;;;;;5127502;27;20100;-74
2021/12/18 08:36:37;;;;;;;27.35;14.38;;;5.10;74.30;;;;;;5128104;27;20035;-74
2021/12/18 08:39:03;;;;;;;27.25;15.07;;;5.10;74.30;;;;;;5114589;27;20110;-74
2021/12/18 08:41:29;;;;;;;28.48;14.25;;;5.10;74.20;;;;;;5131758;27;20026;-74
2021/12/18 08:43:55;;;;;;;25.33;13.90;;;5.10;74.20;;;;;;5135970;27;20058;-75
2021/12/18 08:46:21;;;;;;;27.55;14.50;;;5.20;74.20;;;;;;5124300;27;20022;-75
2021/12/18 08:48:47;;;;;;;25.08;14.57;;;5.20;74.40;;;;;;5119046;27;20424;-75
2021/12/18 08:51:13;;;;;;;26.17;14.68;;;5.40;74.40;;;;;;5123618;27;20114;-75
2021/12/18 08:53:39;;;;;;;27.35;14.65;;;5.20;74.20;;;;;;5123002;27;20501;-75
2021/12/18 08:56:05;;;;;;;21.80;12.70;;;5.30;74.10;;;;;;5127587;27;20024;-75
2021/12/18 08:58:31;;;;;;;22.02;13.23;;;5.30;74.00;;;;;;5103162;27;20019;-76
2021/12/18 09:00:58;;;;;;;23.17;13.90;;;5.30;73.90;;;;;;5134216;27;20038;-76
2021/12/18 09:03:24;;;;;;;25.42;13.15;;;5.40;74.00;;;;;;5122991;27;20039;-76
2021/12/18 09:05:51;;;;;;;25.38;14.25;;;5.40;74.00;;;;;;5114615;28;20035;-77
2021/12/18 09:08:16;;;;;;;25.48;14.20;;;5.40;73.80;;;;;;5126430;27;20421;-75
2021/12/18 09:10:42;;;;;;;25.85;15.07;;;5.50;73.70;;;;;;5134576;27;20023;-75
2021/12/18 09:13:08;;;;;;;27.48;15.98;;;5.50;73.60;;;;;;5133668;27;20027;-75
2021/12/18 09:15:34;;;;;;;25.20;13.10;;;5.50;73.40;;;;;;5128086;27;20022;-75
2021/12/18 09:18:00;;;;;;;24.98;13.65;;;5.50;73.30;;;;;;5098448;28;20031;-75
2021/12/18 09:20:25;;;;;;;27.65;15.18;;;5.50;73.20;;;;;;5112025;28;20034;-75
2021/12/18 09:22:51;;;;;;;30.23;16.58;;;5.50;73.20;;;;;;5126919;27;20027;-75
2021/12/18 09:25:17;;;;;;;28.60;15.40;;;5.50;73.30;;;;;;5116363;27;20035;-76
2021/12/18 09:27:43;;;;;;;28.05;14.93;;;5.50;73.30;;;;;;5131811;27;20072;-75
2021/12/18 09:30:13;;;;;;;26.27;14.57;;;5.60;73.30;;;;;;5134084;27;20053;-74
2021/12/18 09:32:39;;;;;;;24.65;13.85;;;5.60;73.40;;;;;;5115433;27;20027;-75
2021/12/18 09:35:06;;;;;;;26.85;15.20;;;5.60;73.30;;;;;;5131872;27;20102;-76
2021/12/18 09:37:32;;;;;;;27.98;14.77;;;5.50;73.10;;;;;;5117423;27;20084;-74
2021/12/18 09:39:58;;;;;;;24.80;13.93;;;5.60;73.20;;;;;;5112084;27;20024;-72
2021/12/18 09:42:24;;;;;;;25.38;14.50;;;5.60;73.00;;;;;;5140953;27;20106;-73
2021/12/18 09:44:51;;;;;;;31.63;18.30;;;5.60;73.00;;;;;;5122685;27;20043;-73
2021/12/18 09:47:19;;;;;;;28.92;17.55;;;5.60;73.00;;;;;;5110813;27;20109;-71
2021/12/18 09:49:45;;;;;;;27.23;15.48;;;5.70;73.10;;;;;;5103585;27;20035;-70
2021/12/18 09:52:11;;;;;;;26.25;15.52;;;5.70;73.10;;;;;;5122655;27;20385;-70
2021/12/18 09:54:37;;;;;;;29.27;16.42;;;5.70;72.90;;;;;;5112786;27;20028;-75
2021/12/18 09:57:03;;;;;;;27.08;14.77;;;5.70;72.70;;;;;;5124574;27;20106;-74
2021/12/18 09:59:29;;;;;;;25.77;15.05;;;5.60;72.40;;;;;;5115176;27;20031;-75
2021/12/18 10:01:55;;;;;;;36.33;23.15;;;5.60;72.50;;;;;;5132382;27;20027;-75
2021/12/18 10:04:39;;;;;;;30.27;18.60;;;5.60;72.70;;;;;;5128484;27;20071;-74
2021/12/18 10:07:20;;;;;;;24.20;13.52;;;5.60;72.90;;;;;;5128269;27;20502;-75
2021/12/18 10:09:49;;;;;;;30.65;16.75;;;5.70;72.90;;;;;;5127491;27;20486;-72
2021/12/18 10:12:19;;;;;;;31.05;15.73;;;5.70;72.90;;;;;;5113325;28;20024;-74
2021/12/18 10:14:57;;;;;;;26.85;15.73;;;5.70;73.00;;;;;;5115082;27;20027;-74
2021/12/18 10:17:35;;;;;;;29.33;15.68;;;5.70;72.90;;;;;;5124218;27;20383;-74
2021/12/18 10:20:09;;;;;;;28.33;15.88;;;5.80;72.90;;;;;;5120403;27;20036;-75
2021/12/18 10:22:36;;;;;;;29.35;16.35;;;5.80;72.80;;;;;;5095554;28;20023;-73
2021/12/18 10:25:06;;;;;;;31.92;16.67;;;5.80;72.80;;;;;;5109092;28;20138;-73
2021/12/18 10:27:32;;;;;;;32.63;18.55;;;5.80;72.70;;;;;;5122885;27;20030;-73
2021/12/18 10:30:17;;;;;;;32.70;18.83;;;5.80;72.80;;;;;;5143413;27;20046;-73
2021/12/18 10:33:07;;;;;;;33.13;17.73;;;5.80;72.70;;;;;;5113046;28;20486;-74
2021/12/18 10:35:40;;;;;;;35.45;18.38;;;5.90;72.50;;;;;;5120252;27;20031;-73
2021/12/18 10:38:06;;;;;;;34.17;17.00;;;5.90;72.60;;;;;;5144686;27;20031;-74
2021/12/18 10:40:46;;;;;;;30.23;16.58;;;5.90;72.50;;;;;;5130184;27;20031;-74
2021/12/18 10:43:15;;;;;;;26.40;15.02;;;5.90;72.10;;;;;;5107628;28;20478;-74
2021/12/18 10:45:41;;;;;;;31.15;17.42;;;5.90;72.20;;;;;;5098212;28;20426;-75
2021/12/18 10:48:12;;;;;;;29.85;17.17;;;5.90;72.20;;;;;;5126647;27;20096;-74
2021/12/18 10:50:46;;;;;;;29.83;15.88;;;5.90;72.20;;;;;;5113316;28;20087;-74
2021/12/18 10:53:23;;;;;;;30.23;16.48;;;5.90;72.30;;;;;;5111916;28;20371;-74
2021/12/18 10:55:58;;;;;;;27.08;15.95;;;5.90;72.30;;;;;;5119792;27;20387;-75
2021/12/18 10:58:39;;;;;;;32.25;17.15;;;5.90;72.30;;;;;;5102175;28;20046;-74
2021/12/18 11:01:15;;;;;;;30.83;16.92;;;5.90;72.20;;;;;;5110795;28;20035;-75
2021/12/18 11:03:49;;;;;;;28.63;15.85;;;5.90;72.20;;;;;;5113576;28;20031;-74
2021/12/18 11:06:22;;;;;;;25.83;15.32;;;5.90;72.30;;;;;;5122981;27;20031;-75
2021/12/18 11:09:08;;;;;;;38.22;19.10;;;5.80;72.20;;;;;;5115311;28;20029;-75
2021/12/18 11:14:30;;;;;;;30.45;16.77;;;5.80;71.70;;;;;;5138350;28;20025;-74
2021/12/18 11:16:59;;;;;;;30.15;16.42;;;5.80;71.90;;;;;;5117264;28;20023;-76
2021/12/18 11:19:30;;;;;;;37.15;18.80;;;5.80;72.00;;;;;;5115194;28;20027;-75
2021/12/18 11:22:00;;;;;;;32.85;17.42;;;5.70;71.90;;;;;;5116106;27;20038;-74
2021/12/18 11:24:39;;;;;;;31.55;15.88;;;5.70;71.90;;;;;;5114457;28;20024;-74
2021/12/18 11:27:11;;;;;;;33.75;16.15;;;5.70;71.90;;;;;;5122519;27;20080;-75
2021/12/18 11:29:44;;;;;;;36.88;16.77;;;5.70;72.00;;;;;;5135902;27;20051;-75
2021/12/18 11:32:32;;;;;;;30.65;17.20;;;5.70;72.20;;;;;;5135949;27;20497;-75
2021/12/18 11:35:03;;;;;;;30.52;15.45;;;5.70;72.20;;;;;;5135853;27;20026;-74
2021/12/18 11:37:39;;;;;;;31.63;16.85;;;5.70;72.30;;;;;;5116935;27;20057;-75
2021/12/18 11:40:07;;;;;;;32.97;16.52;;;5.70;72.40;;;;;;5098373;28;20030;-75
2021/12/18 11:42:34;;;;;;;33.25;17.48;;;5.70;72.30;;;;;;5116295;28;20031;-75
2021/12/18 11:45:04;;;;;;;33.72;18.60;;;5.70;72.20;;;;;;5116344;28;20039;-75
2021/12/18 11:47:42;;;;;;;37.55;18.52;;;5.70;72.10;;;;;;5097975;28;20016;-75
2021/12/18 11:50:07;;;;;;;33.97;16.67;;;5.60;72.00;;;;;;5097896;28;20707;-74
2021/12/18 11:52:58;;;;;;;37.13;18.30;;;5.60;72.20;;;;;;5136012;27;20060;-75
2021/12/18 11:55:27;;;;;;;34.03;17.73;;;5.60;72.50;;;;;;5125449;27;20556;-75
2021/12/18 11:57:58;;;;;;;35.15;18.83;;;5.70;72.70;;;;;;5134796;27;20023;-75
2021/12/18 12:00:36;;;;;;;36.72;20.00;;;5.70;72.80;;;;;;5118139;27;20020;-75
2021/12/18 12:03:04;;;;;;;48.10;23.30;;;5.70;72.70;;;;;;5135252;27;20020;-75
2021/12/18 12:05:48;;;;;;;35.67;19.20;;;5.70;72.50;;;;;;5122993;27;20049;-74
2021/12/18 12:08:39;;;;;;;31.10;16.67;;;5.80;72.50;;;;;;5131070;27;20110;-74
2021/12/18 12:11:15;;;;;;;34.80;18.77;;;5.80;72.50;;;;;;5133808;27;20043;-75
2021/12/18 12:13:59;;;;;;;30.90;17.17;;;5.80;72.40;;;;;;5132768;27;20118;-75
2021/12/18 12:16:46;;;;;;;40.40;20.02;;;5.80;72.00;;;;;;5134058;27;20170;-75
2021/12/18 12:19:15;;;;;;;37.00;20.38;;;5.80;71.80;;;;;;5132386;27;20382;-75
2021/12/18 12:21:59;;;;;;;52.05;27.45;;;5.80;71.90;;;;;;5135123;27;20018;-75
2021/12/18 12:24:27;;;;;;;49.17;25.73;;;5.80;71.80;;;;;;5133674;27;20387;-74
2021/12/18 12:27:14;;;;;;;44.05;23.05;;;5.80;72.10;;;;;;5115396;27;20494;-74
2021/12/18 12:29:49;;;;;;;40.70;21.70;;;5.80;72.30;;;;;;5135648;27;20061;-75
2021/12/18 12:32:16;;;;;;;36.75;19.15;;;5.90;72.40;;;;;;5134548;27;20038;-75
2021/12/18 12:34:44;;;;;;;30.92;16.85;;;5.90;72.10;;;;;;5126726;27;20488;-75
2021/12/18 12:37:41;;;;;;;28.17;15.23;;;5.90;72.00;;;;;;5107804;27;20038;-75
2021/12/18 12:40:32;;;;;;;35.50;19.08;;;5.90;71.80;;;;;;5133700;27;20383;-74
2021/12/18 12:43:19;;;;;;;29.58;16.75;;;5.90;71.80;;;;;;5133157;27;20379;-75
2021/12/18 12:45:48;;;;;;;38.05;22.05;;;5.90;71.90;;;;;;5135019;27;20183;-75
2021/12/18 12:48:16;;;;;;;30.00;17.33;;;5.90;72.00;;;;;;5124750;27;20019;-75
2021/12/18 12:50:42;;;;;;;38.65;20.17;;;5.90;71.80;;;;;;5134171;27;20383;-75
2021/12/18 12:53:10;;;;;;;31.35;17.80;;;5.90;71.50;;;;;;5133227;27;20045;-75
2021/12/18 12:55:48;;;;;;;30.45;15.80;;;5.80;71.50;;;;;;5107127;28;20024;-76
2021/12/18 12:58:24;;;;;;;33.13;17.85;;;5.80;71.50;;;;;;5123784;27;20387;-75
2021/12/18 13:00:53;;;;;;;33.85;19.15;;;5.80;71.70;;;;;;5120667;27;20030;-75
2021/12/18 13:03:22;;;;;;;33.63;18.70;;;5.80;71.90;;;;;;5107897;27;20104;-75
2021/12/18 13:05:50;;;;;;;31.88;17.08;;;5.80;72.00;;;;;;5130935;27;20070;-75
2021/12/18 13:08:16;;;;;;;33.83;17.00;;;5.90;72.00;;;;;;5115768;27;20034;-74
2021/12/18 13:10:42;;;;;;;37.65;18.42;;;5.90;71.80;;;;;;5132974;27;20080;-75
2021/12/18 13:13:14;;;;;;;34.13;17.80;;;5.90;71.50;;;;;;5133030;27;20027;-75
2021/12/18 13:15:50;;;;;;;30.83;17.08;;;5.80;71.50;;;;;;5116076;27;20104;-75
2021/12/18 13:18:17;;;;;;;33.95;17.27;;;5.80;71.60;;;;;;5119187;27;20016;-75
2021/12/18 13:20:45;;;;;;;31.98;17.25;;;5.80;71.80;;;;;;5115711;27;20031;-75
2021/12/18 13:23:17;;;;;;;29.40;16.73;;;5.80;71.70;;;;;;5116922;27;20033;-75
2021/12/18 13:25:54;;;;;;;34.90;18.02;;;5.80;71.70;;;;;;5133701;27;20039;-75